createdAt,value
2022-10-09T00:01:52.196Z,11.73
2022-10-09T00:04:21.688Z,11.40
2022-10-09T00:06:51.125Z,11.40
2022-10-09T00:09:20.777Z,10.45
2022-10-09T00:11:50.208Z,12.05
2022-10-09T00:14:19.653Z,12.65
2022-10-09T00:16:49.155Z,11.33
2022-10-09T00:19:18.677Z,12.20
2022-10-09T00:21:48.109Z,11.13
2022-10-09T00:24:17.571Z,11.78
2022-10-09T00:26:48.739Z,11.12
2022-10-09T00:29:19.080Z,10.77
2022-10-09T00:31:50.987Z,11.12
2022-10-09T00:34:21.215Z,11.50
2022-10-09T00:36:50.639Z,10.50
2022-10-09T00:39:20.115Z,11.40
2022-10-09T00:41:49.530Z,11.08
2022-10-09T00:44:52.272Z,11.97
2022-10-09T00:47:42.584Z,11.43
2022-10-09T00:50:26.966Z,11.93
2022-10-09T00:53:00.034Z,12.07
2022-10-09T00:58:02.425Z,12.85
2022-10-09T01:00:31.968Z,12.60
2022-10-09T01:03:01.475Z,11.30
2022-10-09T01:05:46.071Z,11.73
2022-10-09T01:08:24.440Z,12.03
2022-10-09T01:10:59.750Z,11.38
2022-10-09T01:13:54.868Z,10.88
2022-10-09T01:16:28.099Z,10.55
2022-10-09T01:19:00.609Z,11.00
2022-10-09T01:21:36.253Z,11.12
2022-10-09T01:24:36.111Z,11.15
2022-10-09T01:27:16.610Z,10.13
2022-10-09T01:29:51.793Z,11.60
2022-10-09T01:32:24.351Z,11.30
2022-10-09T01:44:52.396Z,9.83
2022-10-09T01:47:24.045Z,10.88
2022-10-09T01:49:59.540Z,10.45
2022-10-09T01:55:20.550Z,10.00
2022-10-09T01:57:58.725Z,11.12
2022-10-09T02:00:30.689Z,11.50
2022-10-09T02:03:01.016Z,10.70
2022-10-09T02:05:32.286Z,10.30
2022-10-09T02:08:02.780Z,10.80
2022-10-09T02:10:34.862Z,10.70
2022-10-09T02:15:37.561Z,10.68
2022-10-09T02:18:12.689Z,10.10
2022-10-09T02:20:45.415Z,10.13
2022-10-09T02:25:40.475Z,10.80
2022-10-09T02:28:11.926Z,10.05
2022-10-09T02:30:51.321Z,11.10
2022-10-09T02:33:23.901Z,10.15
2022-10-09T02:35:53.399Z,10.93
2022-10-09T02:38:22.903Z,9.98
2022-10-09T02:40:52.392Z,10.38
2022-10-09T02:43:21.840Z,9.98
2022-10-09T02:45:51.272Z,10.40
2022-10-09T02:48:20.987Z,10.55
2022-10-09T02:50:50.419Z,10.98
2022-10-09T02:53:19.870Z,11.28
2022-10-09T02:55:49.319Z,10.85
2022-10-09T02:58:18.755Z,11.48
2022-10-09T03:00:52.503Z,12.05
2022-10-09T03:03:22.012Z,12.23
2022-10-09T03:06:02.656Z,11.75
2022-10-09T03:08:32.665Z,11.63
2022-10-09T03:11:02.130Z,11.73
2022-10-09T03:13:32.667Z,11.90
2022-10-09T03:16:14.339Z,11.63
2022-10-09T03:18:44.108Z,11.73
2022-10-09T03:21:16.314Z,11.97
2022-10-09T03:23:46.165Z,12.17
2022-10-09T03:26:19.000Z,12.63
2022-10-09T03:28:50.319Z,12.10
2022-10-09T03:31:46.860Z,12.28
2022-10-09T03:33:52.819Z,12.70
2022-10-09T03:36:23.961Z,12.40
2022-10-09T03:38:53.575Z,13.00
2022-10-09T03:41:22.984Z,11.80
2022-10-09T03:43:52.424Z,11.90
2022-10-09T03:46:21.938Z,13.68
2022-10-09T03:48:51.419Z,11.73
2022-10-09T03:51:20.850Z,12.00
2022-10-09T03:53:50.833Z,12.53
2022-10-09T03:56:20.252Z,12.03
2022-10-09T03:58:49.700Z,11.63
2022-10-09T04:01:19.260Z,10.30
2022-10-09T04:03:48.698Z,12.35
2022-10-09T04:06:18.123Z,11.80
2022-10-09T04:08:47.607Z,11.03
2022-10-09T04:11:17.115Z,11.12
2022-10-09T04:13:46.694Z,9.98
2022-10-09T04:16:16.241Z,11.12
2022-10-09T04:18:47.735Z,10.75
2022-10-09T04:21:17.233Z,11.55
2022-10-09T04:23:46.661Z,10.53
2022-10-09T04:26:16.088Z,11.67
2022-10-09T04:28:45.862Z,11.05
2022-10-09T04:31:15.379Z,10.55
2022-10-09T04:33:44.914Z,10.43
2022-10-09T04:36:14.340Z,10.93
2022-10-09T04:38:43.779Z,12.25
2022-10-09T04:41:13.933Z,11.27
2022-10-09T04:43:43.355Z,10.80
2022-10-09T04:46:14.944Z,10.48
2022-10-09T04:48:46.613Z,10.50
2022-10-09T04:51:18.186Z,10.95
2022-10-09T04:53:47.792Z,11.50
2022-10-09T04:56:20.133Z,11.08
2022-10-09T04:58:51.018Z,11.53
2022-10-09T05:01:23.847Z,10.38
2022-10-09T05:03:54.054Z,10.53
2022-10-09T05:06:24.739Z,10.65
2022-10-09T05:08:55.131Z,9.70
2022-10-09T05:11:26.188Z,11.95
2022-10-09T05:13:57.512Z,10.58
2022-10-09T05:16:29.730Z,11.00
2022-10-09T05:21:30.059Z,10.35
2022-10-09T05:23:59.545Z,10.60
2022-10-09T05:26:29.767Z,10.22
2022-10-09T05:28:59.272Z,9.20
2022-10-09T05:31:30.690Z,10.30
2022-10-09T05:34:01.805Z,10.25
2022-10-09T05:36:31.475Z,10.18
2022-10-09T05:39:04.012Z,10.20
2022-10-09T05:41:33.490Z,9.30
2022-10-09T05:44:04.533Z,9.08
2022-10-09T05:46:34.092Z,10.47
2022-10-09T05:49:06.421Z,10.28
2022-10-09T05:51:38.830Z,9.93
2022-10-09T05:54:08.635Z,9.90
2022-10-09T05:56:40.312Z,9.85
2022-10-09T05:59:13.866Z,9.93
2022-10-09T06:01:46.851Z,10.68
2022-10-09T06:04:19.321Z,9.85
2022-10-09T06:06:49.832Z,9.90
2022-10-09T06:09:25.697Z,9.85
2022-10-09T06:11:56.366Z,9.50
2022-10-09T06:14:26.282Z,10.40
2022-10-09T06:16:55.780Z,10.77
2022-10-09T06:19:25.303Z,10.13
2022-10-09T06:21:54.736Z,10.10
2022-10-09T06:24:29.147Z,10.13
2022-10-09T06:26:58.615Z,9.93
2022-10-09T06:29:28.077Z,10.50
2022-10-09T06:31:57.995Z,10.68
2022-10-09T06:34:27.494Z,11.15
2022-10-09T06:36:57.351Z,10.50
2022-10-09T06:39:26.856Z,11.43
2022-10-09T06:41:56.420Z,11.15
2022-10-09T06:44:27.623Z,12.35
2022-10-09T06:46:57.060Z,11.85
2022-10-09T06:49:26.716Z,12.30
2022-10-09T06:51:56.220Z,12.98
2022-10-09T06:54:25.786Z,13.28
2022-10-09T06:56:55.799Z,12.73
2022-10-09T06:59:25.304Z,12.47
2022-10-09T07:01:56.458Z,14.03
2022-10-09T07:04:26.163Z,14.25
2022-10-09T07:06:55.607Z,13.32
2022-10-09T07:09:25.046Z,12.77
2022-10-09T07:11:54.576Z,12.33
2022-10-09T07:14:25.601Z,11.05
2022-10-09T07:16:55.113Z,10.65
2022-10-09T07:21:56.243Z,10.55
2022-10-09T07:24:25.749Z,10.15
2022-10-09T07:26:58.470Z,9.43
2022-10-09T07:36:56.268Z,8.70
2022-10-09T07:39:25.777Z,7.80
2022-10-09T07:41:55.288Z,7.33
2022-10-09T07:44:24.778Z,7.22
2022-10-09T07:46:54.291Z,7.08
2022-10-09T07:49:23.859Z,6.83
2022-10-09T07:51:53.296Z,6.90
2022-10-09T07:56:51.773Z,6.37
2022-10-09T07:59:21.312Z,6.37
2022-10-09T08:01:50.783Z,5.67
2022-10-09T08:04:20.328Z,6.17
2022-10-09T08:06:49.746Z,6.10
2022-10-09T08:09:19.545Z,6.00
2022-10-09T08:11:48.995Z,5.62
2022-10-09T08:14:19.585Z,6.00
2022-10-09T08:16:49.852Z,5.92
2022-10-09T08:19:19.347Z,5.35
2022-10-09T08:21:48.908Z,5.75
2022-10-09T08:24:18.468Z,6.47
2022-10-09T08:26:47.895Z,5.90
2022-10-09T08:29:18.965Z,5.78
2022-10-09T08:31:48.765Z,5.62
2022-10-09T08:34:19.088Z,4.58
2022-10-09T08:36:48.638Z,5.35
2022-10-09T08:39:18.248Z,5.58
2022-10-09T08:41:58.023Z,5.40
2022-10-09T08:44:30.592Z,5.03
2022-10-09T08:47:05.867Z,5.58
2022-10-09T08:49:41.296Z,6.35
2022-10-09T08:52:22.355Z,5.50
2022-10-09T08:54:53.428Z,5.10
2022-10-09T08:57:23.894Z,4.97
2022-10-09T08:59:53.306Z,5.25
2022-10-09T09:02:31.774Z,5.28
2022-10-09T09:05:25.019Z,4.58
2022-10-09T09:07:57.585Z,4.35
2022-10-09T09:10:35.969Z,4.87
2022-10-09T09:13:37.217Z,4.80
2022-10-09T09:16:22.570Z,4.42
2022-10-09T09:19:15.833Z,4.70
2022-10-09T09:21:52.587Z,4.55
2022-10-09T09:24:25.151Z,4.72
2022-10-09T09:26:57.646Z,5.05
2022-10-09T09:29:28.792Z,4.75
2022-10-09T09:32:02.903Z,4.17
2022-10-09T09:34:42.817Z,4.10
2022-10-09T09:37:13.030Z,4.03
2022-10-09T09:42:16.855Z,3.98
2022-10-09T09:44:52.348Z,3.50
2022-10-09T09:47:24.826Z,3.92
2022-10-09T09:49:56.825Z,3.50
2022-10-09T09:52:29.319Z,4.12
2022-10-09T09:55:00.042Z,3.52
2022-10-09T09:57:35.051Z,3.70
2022-10-09T10:00:19.537Z,3.67
2022-10-09T10:02:49.806Z,3.85
2022-10-09T10:05:27.724Z,3.60
2022-10-09T10:07:57.730Z,3.70
2022-10-09T10:10:28.407Z,3.77
2022-10-09T10:13:01.645Z,3.52
2022-10-09T10:15:33.414Z,3.83
2022-10-09T10:18:08.996Z,3.58
2022-10-09T10:20:56.628Z,3.80
2022-10-09T10:23:35.279Z,3.25
2022-10-09T10:26:11.115Z,3.30
2022-10-09T10:28:52.438Z,3.35
2022-10-09T10:31:37.184Z,3.50
2022-10-09T10:34:09.727Z,3.30
2022-10-09T10:36:39.433Z,3.45
2022-10-09T10:39:11.931Z,3.15
2022-10-09T10:41:48.095Z,3.08
2022-10-09T10:44:26.116Z,3.62
2022-10-09T10:47:01.684Z,3.80
2022-10-09T10:49:33.999Z,3.30
2022-10-09T10:52:27.517Z,4.47
2022-10-09T10:55:11.819Z,3.50
2022-10-09T10:58:02.177Z,2.85
2022-10-09T11:00:34.143Z,3.30
2022-10-09T11:03:21.644Z,3.00
2022-10-09T11:06:00.395Z,3.80
2022-10-09T11:08:47.855Z,3.47
2022-10-09T11:11:39.622Z,3.42
2022-10-09T11:14:33.525Z,3.20
2022-10-09T11:17:11.812Z,3.95
2022-10-09T11:20:01.323Z,4.05
2022-10-09T11:22:36.856Z,3.40
2022-10-09T11:25:25.630Z,3.40
2022-10-09T11:28:10.189Z,3.35
2022-10-09T11:30:42.790Z,3.42
2022-10-09T11:33:15.300Z,3.25
2022-10-09T11:35:47.819Z,3.42
2022-10-09T11:38:32.427Z,3.08
2022-10-09T11:41:05.102Z,2.87
2022-10-09T11:43:49.152Z,3.30
2022-10-09T11:46:24.491Z,3.08
2022-10-09T11:49:12.110Z,2.98
2022-10-09T11:51:54.987Z,2.70
2022-10-09T11:54:27.558Z,3.05
2022-10-09T11:56:59.992Z,3.17
2022-10-09T11:59:33.719Z,3.02
2022-10-09T12:02:18.198Z,5.20
2022-10-09T12:04:56.014Z,6.53
2022-10-09T12:07:32.047Z,4.77
2022-10-09T12:10:10.301Z,3.67
2022-10-09T12:12:39.866Z,3.10
2022-10-09T12:15:15.490Z,6.72
2022-10-09T12:17:50.142Z,3.43
2022-10-09T12:20:26.001Z,2.77
2022-10-09T12:25:46.070Z,2.87
2022-10-09T12:28:24.764Z,2.92
2022-10-09T12:30:54.351Z,2.42
2022-10-09T12:33:45.381Z,2.90
2022-10-09T12:36:17.348Z,3.30
2022-10-09T12:38:46.864Z,2.83
2022-10-09T12:41:22.112Z,2.80
2022-10-09T12:43:54.021Z,2.80
2022-10-09T12:46:37.922Z,2.73
2022-10-09T12:49:10.431Z,2.72
2022-10-09T12:51:39.864Z,6.75
2022-10-09T12:54:10.896Z,2.72
2022-10-09T12:56:41.042Z,4.17
2022-10-09T12:59:13.760Z,4.75
2022-10-09T13:04:31.039Z,2.77
2022-10-09T13:07:03.542Z,3.75
2022-10-09T13:09:39.235Z,2.70
2022-10-09T13:12:11.727Z,4.40
2022-10-09T13:14:47.297Z,2.72
2022-10-09T13:17:37.238Z,4.70
2022-10-09T13:20:22.096Z,4.10
2022-10-09T13:23:02.904Z,2.85
2022-10-09T13:25:41.648Z,3.17
2022-10-09T13:28:16.998Z,4.07
2022-10-09T13:30:46.489Z,3.40
2022-10-09T13:33:17.225Z,2.50
2022-10-09T13:35:47.715Z,2.95
2022-10-09T13:38:20.460Z,3.90
2022-10-09T13:40:50.920Z,4.15
2022-10-09T13:43:23.738Z,2.67
2022-10-09T13:45:53.809Z,3.67
2022-10-09T13:48:23.388Z,3.10
2022-10-09T13:50:53.343Z,2.37
2022-10-09T13:53:22.781Z,3.47
2022-10-09T13:55:55.921Z,4.87
2022-10-09T13:58:25.233Z,3.40
2022-10-09T14:00:55.056Z,3.58
2022-10-09T14:03:24.852Z,3.23
2022-10-09T14:05:59.973Z,2.35
2022-10-09T14:08:29.397Z,2.83
2022-10-09T14:11:01.032Z,3.00
2022-10-09T14:13:30.900Z,2.98
2022-10-09T14:16:00.390Z,2.40
2022-10-09T14:18:29.852Z,4.10
2022-10-09T14:20:59.295Z,2.47
2022-10-09T14:23:28.745Z,4.90
2022-10-09T14:26:01.327Z,2.90
2022-10-09T14:28:30.888Z,2.27
2022-10-09T14:31:00.835Z,3.52
2022-10-09T14:33:30.461Z,2.98
2022-10-09T14:36:10.523Z,2.58
2022-10-09T14:38:43.757Z,5.78
2022-10-09T14:41:14.188Z,3.10
2022-10-09T14:43:43.656Z,3.22
2022-10-09T14:46:17.286Z,2.80
2022-10-09T14:48:51.755Z,3.00
2022-10-09T14:51:23.419Z,4.22
2022-10-09T14:53:58.360Z,4.40
2022-10-09T14:56:28.523Z,3.22
2022-10-09T14:59:03.505Z,2.27
2022-10-09T15:01:34.077Z,3.10
2022-10-09T15:04:07.006Z,3.90
2022-10-09T15:06:37.154Z,2.95
2022-10-09T15:09:06.688Z,2.75
2022-10-09T15:11:37.508Z,2.27
2022-10-09T15:14:07.873Z,2.85
2022-10-09T15:16:38.107Z,4.12
2022-10-09T15:21:38.382Z,3.02
2022-10-09T15:29:09.770Z,2.37
2022-10-09T15:34:13.313Z,5.03
2022-10-09T15:36:44.476Z,2.70
2022-10-09T15:39:15.747Z,3.72
2022-10-09T15:41:47.388Z,2.92
2022-10-09T15:44:21.899Z,2.23
2022-10-09T15:46:51.423Z,4.78
2022-10-09T15:49:20.939Z,4.80
2022-10-09T15:51:50.368Z,5.33
2022-10-09T15:54:19.870Z,4.87
2022-10-09T15:56:49.309Z,2.75
2022-10-09T15:59:19.275Z,2.60
2022-10-09T16:01:50.636Z,3.08
2022-10-09T16:04:20.991Z,2.78
2022-10-09T16:06:50.415Z,2.90
2022-10-09T16:09:21.839Z,2.98
2022-10-09T16:11:53.004Z,2.60
2022-10-09T16:14:22.437Z,2.65
2022-10-09T16:16:51.885Z,2.98
2022-10-09T16:19:21.366Z,2.83
2022-10-09T16:21:50.929Z,2.80
2022-10-09T16:24:20.921Z,2.75
2022-10-09T16:26:51.323Z,2.58
2022-10-09T16:29:20.816Z,2.92
2022-10-09T16:31:50.269Z,2.53
2022-10-09T16:34:19.683Z,2.70
2022-10-09T16:37:26.408Z,2.90
2022-10-09T16:39:53.724Z,3.58
2022-10-09T16:42:23.160Z,4.55
2022-10-09T16:44:52.587Z,4.03
2022-10-09T16:47:22.066Z,3.00
2022-10-09T16:49:51.899Z,3.72
2022-10-09T16:52:21.913Z,3.40
2022-10-09T16:54:51.507Z,3.42
2022-10-09T16:57:20.936Z,3.02
2022-10-09T16:59:50.391Z,3.00
2022-10-09T17:04:48.521Z,3.90
2022-10-09T17:09:46.582Z,3.47
2022-10-09T17:12:16.008Z,3.75
2022-10-09T17:14:47.321Z,3.22
2022-10-09T17:17:16.828Z,3.42
2022-10-09T17:19:46.405Z,5.08
2022-10-09T17:22:15.823Z,3.52
2022-10-09T17:24:45.252Z,3.42
2022-10-09T17:27:14.690Z,3.15
2022-10-09T17:29:44.215Z,3.47
2022-10-09T17:32:13.676Z,3.58
2022-10-09T17:37:13.801Z,3.25
2022-10-09T17:39:45.549Z,3.35
2022-10-09T17:42:14.894Z,3.47
2022-10-09T17:44:44.351Z,3.27
2022-10-09T17:47:13.825Z,3.65
2022-10-09T17:49:43.272Z,3.90
2022-10-09T17:52:15.359Z,3.77
2022-10-09T17:54:43.809Z,3.77
2022-10-09T17:57:13.414Z,3.83
2022-10-09T17:59:42.977Z,3.75
2022-10-09T18:02:12.472Z,4.03
2022-10-09T18:04:41.922Z,4.65
2022-10-09T18:07:11.345Z,3.60
2022-10-09T18:09:40.771Z,4.08
2022-10-09T18:12:10.261Z,3.62
2022-10-09T18:14:39.907Z,3.80
2022-10-09T18:17:09.400Z,4.12
2022-10-09T18:19:38.899Z,4.40
2022-10-09T18:22:08.832Z,4.15
2022-10-09T18:24:38.335Z,4.35
2022-10-09T18:27:07.756Z,4.50
2022-10-09T18:29:38.279Z,4.40
2022-10-09T18:32:07.704Z,4.42
2022-10-09T18:34:39.270Z,3.72
2022-10-09T18:37:08.255Z,4.25
2022-10-09T18:39:37.674Z,4.05
2022-10-09T18:42:07.354Z,4.27
2022-10-09T18:44:39.099Z,4.10
2022-10-09T18:47:13.146Z,3.87
2022-10-09T18:49:45.804Z,4.20
2022-10-09T18:52:15.963Z,4.00
2022-10-09T18:54:48.673Z,4.95
2022-10-09T18:59:47.281Z,5.07
2022-10-09T19:02:17.092Z,4.40
2022-10-09T19:04:46.527Z,4.65
2022-10-09T19:07:15.973Z,4.45
2022-10-09T19:09:45.545Z,4.87
2022-10-09T19:12:16.767Z,4.30
2022-10-09T19:14:46.837Z,4.75
2022-10-09T19:17:16.942Z,4.30
2022-10-09T19:19:46.371Z,4.55
2022-10-09T19:22:21.309Z,4.22
2022-10-09T19:24:48.171Z,4.43
2022-10-09T19:27:17.624Z,3.92
2022-10-09T19:29:47.058Z,4.33
2022-10-09T19:32:22.987Z,4.60
2022-10-09T19:34:50.406Z,4.10
2022-10-09T19:37:22.082Z,4.05
2022-10-09T19:39:52.433Z,4.40
2022-10-09T19:42:23.126Z,4.17
2022-10-09T19:44:54.400Z,4.08
2022-10-09T19:47:24.345Z,4.12
2022-10-09T19:49:53.821Z,4.28
2022-10-09T19:52:23.323Z,4.25
2022-10-09T19:54:52.899Z,4.90
2022-10-09T19:57:22.328Z,3.60
2022-10-09T20:02:20.624Z,3.95
2022-10-09T20:04:50.522Z,4.42
2022-10-09T20:12:18.955Z,4.00
2022-10-09T20:14:48.387Z,4.60
2022-10-09T20:17:18.555Z,4.30
2022-10-09T20:19:48.359Z,4.12
2022-10-09T20:22:17.839Z,4.65
2022-10-09T20:24:47.301Z,4.70
2022-10-09T20:27:17.094Z,4.20
2022-10-09T20:29:46.557Z,4.53
2022-10-09T20:32:18.045Z,4.10
2022-10-09T20:34:47.471Z,4.00
2022-10-09T20:37:16.897Z,4.47
2022-10-09T20:39:46.460Z,3.52
2022-10-09T20:42:18.752Z,4.08
2022-10-09T20:44:48.212Z,3.80
2022-10-09T20:47:17.642Z,3.67
2022-10-09T20:49:51.306Z,3.25
2022-10-09T20:52:22.255Z,3.12
2022-10-09T20:54:51.948Z,2.90
2022-10-09T20:57:21.368Z,3.30
2022-10-09T20:59:50.802Z,3.42
2022-10-09T21:02:20.247Z,3.47
2022-10-09T21:04:49.732Z,3.30
2022-10-09T21:07:19.235Z,3.20
2022-10-09T21:09:48.727Z,3.23
2022-10-09T21:12:18.250Z,3.30
2022-10-09T21:14:47.646Z,3.20
2022-10-09T21:17:18.770Z,3.00
2022-10-09T21:19:51.606Z,4.00
2022-10-09T21:22:23.917Z,3.72
2022-10-09T21:24:53.430Z,3.63
2022-10-09T21:27:22.867Z,3.22
2022-10-09T21:29:52.367Z,3.92
2022-10-09T21:32:23.449Z,3.13
2022-10-09T21:34:52.886Z,3.22
2022-10-09T21:39:52.003Z,3.25
2022-10-09T21:42:21.428Z,3.45
2022-10-09T21:44:50.851Z,3.50
2022-10-09T21:49:47.071Z,3.15
2022-10-09T21:52:16.568Z,3.22
2022-10-09T21:54:46.563Z,3.30
2022-10-09T21:57:16.028Z,2.95
2022-10-09T21:59:45.439Z,3.65
2022-10-09T22:02:14.885Z,3.50
2022-10-09T22:04:44.338Z,3.75
2022-10-09T22:07:13.770Z,3.37
2022-10-09T22:09:43.264Z,4.10
2022-10-09T22:12:12.753Z,3.92
2022-10-09T22:14:42.184Z,3.22
2022-10-09T22:17:11.791Z,3.80
2022-10-09T22:19:41.382Z,3.98
2022-10-09T22:22:10.805Z,3.50
2022-10-09T22:24:40.222Z,3.20
2022-10-09T22:27:09.792Z,4.12
2022-10-09T22:29:39.285Z,3.25
2022-10-09T22:32:10.644Z,3.80
2022-10-09T22:34:40.138Z,3.33
2022-10-09T22:37:09.565Z,3.77
2022-10-09T22:42:07.616Z,3.72
2022-10-09T22:44:37.048Z,3.45
2022-10-09T22:47:06.569Z,3.90
2022-10-09T22:49:36.001Z,3.40
2022-10-09T22:52:05.508Z,3.60
2022-10-09T22:54:35.060Z,4.00
2022-10-09T22:57:04.559Z,3.50
2022-10-09T22:59:34.064Z,4.22
2022-10-09T23:02:04.359Z,3.37
2022-10-09T23:04:33.870Z,3.00
2022-10-09T23:07:03.432Z,3.30
2022-10-09T23:09:34.070Z,3.02
2022-10-09T23:12:03.561Z,3.40
2022-10-09T23:14:33.001Z,3.52
2022-10-09T23:17:02.458Z,2.85
2022-10-09T23:19:31.888Z,3.33
2022-10-09T23:22:01.681Z,3.62
2022-10-09T23:24:31.169Z,3.15
2022-10-09T23:27:00.674Z,3.30
2022-10-09T23:29:30.179Z,2.70
2022-10-09T23:31:59.667Z,2.77
2022-10-09T23:34:29.469Z,3.30
2022-10-09T23:36:58.957Z,3.08
2022-10-09T23:39:28.592Z,3.20
2022-10-09T23:41:58.006Z,3.27
2022-10-09T23:44:27.478Z,3.10
2022-10-09T23:46:57.367Z,3.10
2022-10-09T23:49:26.801Z,3.00
2022-10-09T23:51:56.443Z,3.52
2022-10-09T23:54:25.875Z,3.17
2022-10-09T23:56:55.479Z,2.70
2022-10-09T23:59:25.229Z,2.98
